NCAR-RAP Real-Time Weather Data

Output produced by METARs form (08 May 2021  15:49 UTC)
found at http://weather.rap.ucar.edu/surface/
 
KAZO 081453Z 34011G18KT 10SM CLR 08/M03 A3013 RMK AO2 SLP210 T00831028 50005
KAZO 081353Z 34012KT 10SM CLR 07/M03 A3014 RMK AO2 SLP211 T00721028
KAZO 081253Z 33007KT 10SM CLR 06/M01 A3013 RMK AO2 SLP209 T00561011
KAZO 081153Z 32008KT 10SM CLR 03/M01 A3012 RMK AO2 SLP205 T00331006 10033 20000 51021
KAZO 081053Z 28005KT 10SM CLR 01/M02 A3010 RMK AO2 SLP199 T00061022
KAZO 080953Z AUTO 32003KT 10SM CLR 01/M02 A3008 RMK AO2 SLP192 T00061022
KAZO 080853Z AUTO 34006KT 10SM CLR 01/M03 A3005 RMK AO2 SLP183 T00061028 51003
KAZO 080753Z AUTO 34007KT 10SM CLR 01/M02 A3005 RMK AO2 SLP182 T00111022
KAZO 080653Z AUTO 34006KT 10SM CLR 02/M02 A3005 RMK AO2 SLP182 T00171017
KAZO 080553Z AUTO 34005KT 10SM CLR 02/M01 A3004 RMK AO2 SLP179 T00171011 10083 20017 53005
KAZO 080453Z AUTO 35007KT 10SM CLR 02/M01 A3003 RMK AO2 SLP176 T00221011 401331006
KAZO 080353Z AUTO 32007KT 10SM CLR 03/00 A3003 RMK AO2 SLP175 T00330000
KAZO 080253Z 33008KT 10SM CLR 04/00 A3003 RMK AO2 SLP174 T00440000 53018
KAZO 080153Z 31007KT 10SM CLR 05/00 A3000 RMK AO2 SLP167 T00500000
KAZO 080053Z 32010KT 10SM CLR 06/M01 A2998 RMK AO2 SLP160 T00611006
KAZO 072353Z 31013G21KT 10SM CLR 08/M01 A2997 RMK AO2 SLP156 T00831011 10133 20083 51005